Time;durP1;ratioP1;P1;durP2;ratioP2;P2;SDS_P1;SDS_P2;PMS_P1;PMS_P2;Temp;Humidity;BMP_temperature;BMP_pressure;BME280_temperature;BME280_humidity;BME280_pressure;Samples;Min_cycle;Max_cycle;Signal;HPM_P1;HPM_P2
2021/05/25 00:00:13;;;;;;;6.07;3.85;;;14.50;99.90;;;;;;5030730;28;20025;-81
2021/05/25 00:02:39;;;;;;;10.00;4.70;;;14.50;99.90;;;;;;5029707;28;20100;-80
2021/05/25 00:05:06;;;;;;;13.95;4.10;;;14.50;99.90;;;;;;5027515;28;20101;-79
2021/05/25 00:07:32;;;;;;;14.38;4.63;;;14.50;99.90;;;;;;5033627;28;20032;-79
2021/05/25 00:09:58;;;;;;;7.28;3.78;;;14.50;99.90;;;;;;5032508;28;20021;-79
2021/05/25 00:12:24;;;;;;;10.30;3.30;;;14.60;99.90;;;;;;5033148;28;20021;-80
2021/05/25 00:14:49;;;;;;;11.73;3.83;;;14.60;99.90;;;;;;5010185;28;20030;-80
2021/05/25 00:17:15;;;;;;;9.40;3.80;;;14.60;99.90;;;;;;5024369;28;20047;-80
2021/05/25 00:19:41;;;;;;;8.90;3.63;;;14.60;99.90;;;;;;5020417;28;20041;-80
2021/05/25 00:22:07;;;;;;;8.05;4.20;;;14.60;99.90;;;;;;5021711;28;20040;-80
2021/05/25 00:24:33;;;;;;;9.73;4.13;;;14.70;99.90;;;;;;5014178;28;20025;-78
2021/05/25 00:26:59;;;;;;;5.45;3.35;;;14.70;99.90;;;;;;5021431;28;20022;-80
2021/05/25 00:29:25;;;;;;;9.40;4.43;;;14.70;99.90;;;;;;5027079;28;20101;-80
2021/05/25 00:31:51;;;;;;;13.35;4.45;;;14.80;99.90;;;;;;5024309;28;20025;-81
2021/05/25 00:34:16;;;;;;;7.68;3.88;;;14.80;99.90;;;;;;5032510;28;20126;-80
2021/05/25 00:36:42;;;;;;;14.00;4.28;;;14.80;99.90;;;;;;5033118;28;20025;-80
2021/05/25 00:39:08;;;;;;;9.10;3.90;;;14.80;99.90;;;;;;5032741;28;20017;-80
2021/05/25 00:41:35;;;;;;;7.60;4.20;;;14.80;99.90;;;;;;5015042;28;20021;-80
2021/05/25 00:44:02;;;;;;;11.15;4.38;;;14.80;99.90;;;;;;5028977;28;20653;-80
2021/05/25 00:46:28;;;;;;;20.17;5.18;;;14.90;99.90;;;;;;5023167;28;20469;-81
2021/05/25 00:48:54;;;;;;;12.52;5.65;;;14.90;99.90;;;;;;5025057;28;20048;-79
2021/05/25 00:51:19;;;;;;;10.70;5.03;;;15.00;99.90;;;;;;5014196;28;20030;-80
2021/05/25 00:53:45;;;;;;;11.55;3.97;;;15.10;99.90;;;;;;5014222;28;20037;-80
2021/05/25 00:56:12;;;;;;;11.98;4.25;;;15.10;99.90;;;;;;5027076;28;20025;-80
2021/05/25 00:58:38;;;;;;;18.58;5.53;;;15.20;99.90;;;;;;5012700;28;20026;-81
2021/05/25 01:01:04;;;;;;;17.58;4.53;;;15.20;99.90;;;;;;4995302;28;20018;-80
2021/05/25 01:03:30;;;;;;;10.45;4.38;;;15.30;99.90;;;;;;5011007;28;20490;-79
2021/05/25 01:05:55;;;;;;;20.25;4.97;;;15.30;99.90;;;;;;4995423;28;20064;-80
2021/05/25 01:08:22;;;;;;;14.38;4.88;;;15.30;99.90;;;;;;5012472;28;20386;-80
2021/05/25 01:10:54;;;;;;;11.63;5.13;;;15.30;99.90;;;;;;5012769;28;20072;-80
2021/05/25 01:13:21;;;;;;;;;;;15.30;99.90;;;;;;4995345;28;20036;-80
2021/05/25 01:15:50;;;;;;;12.90;5.88;;;15.30;99.90;;;;;;5013885;28;20393;-80
2021/05/25 01:18:16;;;;;;;20.77;6.90;;;15.30;99.90;;;;;;5028692;28;20416;-80
2021/05/25 01:20:44;;;;;;;13.75;5.53;;;15.30;99.90;;;;;;5034385;28;20020;-80
2021/05/25 01:23:10;;;;;;;18.05;5.85;;;15.30;99.90;;;;;;5033796;28;20017;-80
2021/05/25 01:25:38;;;;;;;20.65;6.30;;;15.30;99.90;;;;;;5021831;28;20025;-80
2021/05/25 01:28:07;;;;;;;17.88;6.35;;;15.30;99.90;;;;;;5019638;28;20022;-79
2021/05/25 01:30:36;;;;;;;17.83;6.70;;;15.30;99.90;;;;;;5007340;28;20032;-80
2021/05/25 01:33:04;;;;;;;20.35;7.00;;;15.30;99.90;;;;;;5034038;28;20071;-79
2021/05/25 01:35:31;;;;;;;9.57;5.63;;;15.30;99.90;;;;;;5033957;28;20040;-80
2021/05/25 01:37:58;;;;;;;20.00;6.70;;;15.30;99.90;;;;;;5034024;28;20063;-80
2021/05/25 01:40:25;;;;;;;16.42;6.72;;;15.30;99.90;;;;;;5033367;28;20071;-80
2021/05/25 01:42:51;;;;;;;22.50;7.35;;;15.30;99.90;;;;;;5033273;28;20055;-79
2021/05/25 01:45:21;;;;;;;24.08;7.80;;;15.30;99.90;;;;;;5016972;28;20040;-80
2021/05/25 01:47:47;;;;;;;22.17;7.78;;;15.30;99.90;;;;;;5020491;28;20050;-80
2021/05/25 01:50:16;;;;;;;25.23;9.55;;;15.30;99.90;;;;;;5027628;28;20057;-80
2021/05/25 01:52:48;;;;;;;20.65;8.90;;;15.30;99.90;;;;;;5029284;28;20051;-81
2021/05/25 01:55:34;;;;;;;17.27;8.35;;;15.40;99.90;;;;;;5026509;28;20508;-80
2021/05/25 01:58:10;;;;;;;22.45;8.25;;;15.40;99.90;;;;;;4996016;28;20373;-80
2021/05/25 02:00:39;;;;;;;29.33;7.38;;;15.40;99.90;;;;;;5028065;28;20021;-80
2021/05/25 02:03:05;;;;;;;10.38;6.18;;;15.40;99.90;;;;;;5032466;28;20470;-80
2021/05/25 02:05:32;;;;;;;15.77;6.50;;;15.40;99.90;;;;;;5006516;28;20117;-79
2021/05/25 02:07:58;;;;;;;16.88;6.50;;;15.40;99.90;;;;;;5012265;28;20018;-80
2021/05/25 02:10:34;;;;;;;19.02;6.43;;;15.40;99.90;;;;;;4995640;28;20030;-81
2021/05/25 02:13:12;;;;;;;20.40;6.43;;;15.40;99.90;;;;;;4995516;28;20022;-80
2021/05/25 02:15:39;;;;;;;10.68;5.63;;;15.40;99.90;;;;;;5012948;28;20096;-81
2021/05/25 02:18:10;;;;;;;10.88;6.00;;;15.40;99.90;;;;;;5012624;28;20014;-79
2021/05/25 02:20:37;;;;;;;13.03;6.30;;;15.30;99.90;;;;;;5012502;28;20036;-80
2021/05/25 02:23:03;;;;;;;14.85;5.47;;;15.30;99.90;;;;;;5012814;28;20016;-80
2021/05/25 02:25:29;;;;;;;11.43;6.05;;;15.30;99.90;;;;;;5012774;28;20430;-80
2021/05/25 02:27:55;;;;;;;17.40;6.25;;;15.30;99.90;;;;;;5026156;28;20422;-81
2021/05/25 02:30:21;;;;;;;10.55;5.93;;;15.30;99.90;;;;;;5013171;28;20026;-80
2021/05/25 02:32:48;;;;;;;13.68;5.47;;;15.30;99.90;;;;;;5026180;28;20389;-80
2021/05/25 02:35:13;;;;;;;21.90;5.75;;;15.30;99.90;;;;;;5032588;28;20108;-80
2021/05/25 02:37:39;;;;;;;10.85;4.97;;;15.30;99.90;;;;;;5032524;28;20100;-80
2021/05/25 02:40:06;;;;;;;9.82;4.82;;;15.30;99.90;;;;;;5031316;28;20022;-81
2021/05/25 02:42:32;;;;;;;14.38;5.68;;;15.30;99.90;;;;;;5030875;28;20043;-81
2021/05/25 02:44:58;;;;;;;11.90;5.57;;;15.30;99.90;;;;;;5030790;28;20700;-80
2021/05/25 02:47:24;;;;;;;15.70;5.10;;;15.30;99.90;;;;;;5007378;28;20453;-80
2021/05/25 02:49:49;;;;;;;10.07;4.95;;;15.30;99.90;;;;;;5010858;28;20045;-80
2021/05/25 02:52:15;;;;;;;11.13;5.40;;;15.30;99.90;;;;;;5012346;28;20071;-81
2021/05/25 02:54:41;;;;;;;15.88;5.72;;;15.30;99.90;;;;;;5018154;28;20494;-80
2021/05/25 02:57:08;;;;;;;7.85;5.65;;;15.20;99.90;;;;;;5030057;28;20029;-79
2021/05/25 02:59:34;;;;;;;12.05;5.40;;;15.20;99.90;;;;;;5032506;28;20025;-80
2021/05/25 03:02:00;;;;;;;11.43;5.55;;;15.10;99.90;;;;;;5031475;28;20026;-80
2021/05/25 03:04:26;;;;;;;15.05;5.60;;;15.10;99.90;;;;;;5031791;28;20029;-81
2021/05/25 03:06:51;;;;;;;7.63;4.93;;;15.10;99.90;;;;;;5031857;28;20533;-80
2021/05/25 03:09:17;;;;;;;10.23;5.85;;;15.10;99.90;;;;;;5018529;28;20108;-80
2021/05/25 03:11:44;;;;;;;12.85;5.70;;;15.10;99.90;;;;;;5012777;28;20034;-80
2021/05/25 03:14:09;;;;;;;8.55;4.90;;;15.10;99.90;;;;;;5026900;28;20029;-80
2021/05/25 03:16:35;;;;;;;16.65;5.28;;;15.00;99.90;;;;;;5032143;28;20075;-79
2021/05/25 03:19:01;;;;;;;20.52;6.32;;;15.10;99.90;;;;;;5031986;28;20032;-80
2021/05/25 03:21:27;;;;;;;13.63;6.57;;;15.10;99.90;;;;;;5032184;28;20021;-80
2021/05/25 03:23:54;;;;;;;12.93;5.38;;;15.10;99.90;;;;;;5031957;28;20025;-80
2021/05/25 03:26:21;;;;;;;14.45;6.78;;;15.10;99.90;;;;;;5014159;28;20021;-79
2021/05/25 03:28:47;;;;;;;13.65;6.28;;;15.10;99.90;;;;;;5026367;28;20020;-80
2021/05/25 03:31:12;;;;;;;26.48;6.85;;;15.10;99.90;;;;;;5017399;28;20479;-79
2021/05/25 03:33:38;;;;;;;10.82;7.47;;;15.10;99.90;;;;;;5018668;28;20038;-80
2021/05/25 03:36:04;;;;;;;11.82;9.07;;;15.10;99.90;;;;;;5028537;28;20417;-80
2021/05/25 03:38:30;;;;;;;15.38;8.70;;;15.10;99.90;;;;;;5031595;28;20043;-80
2021/05/25 03:40:56;;;;;;;14.68;10.40;;;15.10;99.90;;;;;;5032315;28;20132;-79
2021/05/25 03:43:22;;;;;;;17.35;10.98;;;15.00;99.90;;;;;;5032102;28;20111;-80
2021/05/25 03:45:48;;;;;;;18.98;12.57;;;15.00;99.90;;;;;;5032169;28;20537;-79
2021/05/25 03:48:14;;;;;;;30.35;13.77;;;15.00;99.90;;;;;;5025884;28;20034;-79
2021/05/25 03:50:40;;;;;;;23.17;13.48;;;15.00;99.90;;;;;;5018796;28;20062;-79
2021/05/25 03:53:06;;;;;;;22.27;13.88;;;15.00;99.90;;;;;;5016875;28;20486;-80
2021/05/25 04:01:00;;;;;;;21.88;13.80;;;15.00;99.90;;;;;;5006891;28;20068;-80
2021/05/25 04:03:27;;;;;;;23.30;13.95;;;15.00;99.90;;;;;;5031658;28;20057;-80
2021/05/25 04:05:52;;;;;;;26.77;13.93;;;15.00;99.90;;;;;;5031026;28;20025;-80
2021/05/25 04:08:18;;;;;;;23.25;13.90;;;15.00;99.90;;;;;;5028792;28;20026;-80
2021/05/25 04:10:45;;;;;;;21.48;14.75;;;15.10;99.90;;;;;;5016186;28;20013;-80
2021/05/25 04:13:11;;;;;;;20.77;13.27;;;15.00;99.90;;;;;;5011086;28;20022;-79
2021/05/25 04:15:38;;;;;;;22.65;12.60;;;15.10;99.90;;;;;;5026639;28;20052;-80
2021/05/25 04:18:04;;;;;;;17.05;11.50;;;15.10;99.90;;;;;;5013040;28;20171;-79
2021/05/25 04:20:30;;;;;;;22.38;10.90;;;15.10;99.90;;;;;;5026184;28;20139;-80
2021/05/25 04:22:57;;;;;;;18.92;10.38;;;15.10;99.90;;;;;;5018610;28;20099;-80
2021/05/25 04:25:23;;;;;;;15.02;9.50;;;15.10;99.90;;;;;;5015425;28;20022;-80
2021/05/25 04:27:48;;;;;;;16.20;8.00;;;15.20;99.90;;;;;;5011407;28;20042;-79
2021/05/25 04:30:15;;;;;;;15.15;8.23;;;15.20;99.90;;;;;;5026101;28;20021;-80
2021/05/25 04:32:41;;;;;;;13.27;7.78;;;15.10;99.90;;;;;;5003730;28;20030;-79
2021/05/25 04:35:08;;;;;;;12.60;7.05;;;15.20;99.90;;;;;;5010873;28;20034;-80
2021/05/25 04:37:34;;;;;;;11.25;7.50;;;15.20;99.90;;;;;;5020950;28;20026;-80
2021/05/25 04:40:00;;;;;;;9.35;6.50;;;15.10;99.90;;;;;;5030198;28;20017;-79
2021/05/25 04:42:26;;;;;;;9.75;7.20;;;15.10;99.90;;;;;;5018818;28;20029;-80
2021/05/25 04:44:51;;;;;;;10.15;7.70;;;15.10;99.90;;;;;;5010923;28;20449;-79
2021/05/25 04:47:17;;;;;;;16.50;7.38;;;15.10;99.90;;;;;;5010553;28;20029;-80
2021/05/25 04:49:43;;;;;;;12.30;7.07;;;15.10;99.90;;;;;;5013230;28;20045;-81
2021/05/25 04:52:09;;;;;;;15.07;7.15;;;15.10;99.90;;;;;;5013649;28;20048;-80
2021/05/25 04:54:35;;;;;;;11.30;6.68;;;15.20;99.90;;;;;;5014393;28;20076;-80
2021/05/25 04:57:01;;;;;;;13.70;7.35;;;15.20;99.90;;;;;;5014896;28;20014;-81
2021/05/25 04:59:27;;;;;;;14.27;6.82;;;15.20;99.90;;;;;;5014711;28;20034;-79
2021/05/25 05:01:52;;;;;;;17.08;6.82;;;15.30;99.90;;;;;;4996538;28;20109;-80
2021/05/25 05:04:18;;;;;;;9.13;5.72;;;15.30;99.90;;;;;;5014035;28;20407;-81
2021/05/25 05:06:44;;;;;;;10.65;6.65;;;15.30;99.90;;;;;;5014398;28;20025;-80
2021/05/25 05:09:10;;;;;;;11.88;6.60;;;15.40;99.90;;;;;;5013718;28;20026;-80
2021/05/25 05:11:35;;;;;;;12.15;6.97;;;15.40;99.90;;;;;;4996603;28;20034;-79
2021/05/25 05:14:01;;;;;;;11.20;7.32;;;15.50;99.90;;;;;;5014043;28;20034;-80
2021/05/25 05:16:27;;;;;;;13.88;6.82;;;15.50;99.90;;;;;;5014587;28;20032;-79
2021/05/25 05:18:53;;;;;;;15.70;7.60;;;15.60;99.90;;;;;;5016910;28;20034;-80
2021/05/25 05:21:19;;;;;;;13.73;7.50;;;15.60;99.90;;;;;;5014428;28;20018;-80
2021/05/25 05:23:44;;;;;;;12.98;7.65;;;15.70;99.90;;;;;;5019749;28;20056;-79
2021/05/25 05:26:11;;;;;;;14.70;7.57;;;15.80;99.90;;;;;;5028927;28;20063;-80
2021/05/25 05:28:37;;;;;;;11.40;7.90;;;16.00;99.90;;;;;;5033464;28;20018;-79
2021/05/25 05:31:03;;;;;;;18.10;7.28;;;16.20;99.90;;;;;;5002823;28;20125;-79
2021/05/25 05:33:29;;;;;;;11.52;8.27;;;16.40;99.90;;;;;;5014086;28;20029;-80
2021/05/25 05:35:55;;;;;;;14.10;7.30;;;16.60;99.90;;;;;;4996409;28;20096;-80
2021/05/25 05:38:23;;;;;;;10.98;7.38;;;16.70;99.90;;;;;;5013337;28;20026;-80
2021/05/25 05:40:48;;;;;;;15.98;8.10;;;16.70;99.90;;;;;;5013571;28;20451;-79
2021/05/25 05:43:14;;;;;;;14.40;8.65;;;16.70;99.90;;;;;;5024511;28;20022;-80
2021/05/25 05:45:40;;;;;;;16.63;9.68;;;16.70;99.90;;;;;;5013620;28;20121;-79
2021/05/25 05:48:07;;;;;;;24.27;9.05;;;16.60;99.90;;;;;;4996251;28;20044;-79
2021/05/25 05:50:33;;;;;;;19.83;9.77;;;16.60;99.90;;;;;;5013978;28;20025;-79
2021/05/25 05:52:58;;;;;;;17.55;10.55;;;16.70;99.90;;;;;;5013911;28;20075;-80
2021/05/25 05:55:25;;;;;;;19.17;10.68;;;16.60;99.90;;;;;;5013299;28;20030;-80
2021/05/25 05:57:52;;;;;;;15.82;9.63;;;16.50;99.90;;;;;;5013708;28;20025;-79
2021/05/25 06:00:19;;;;;;;15.85;10.25;;;16.50;99.90;;;;;;4995855;28;20398;-79
2021/05/25 06:02:45;;;;;;;24.98;10.65;;;16.50;99.90;;;;;;5013188;28;20029;-79
2021/05/25 06:05:11;;;;;;;27.02;11.23;;;16.40;99.90;;;;;;4995858;28;20406;-78
2021/05/25 06:07:37;;;;;;;18.45;10.82;;;16.50;99.90;;;;;;5013401;28;20037;-79
2021/05/25 06:10:05;;;;;;;18.77;11.18;;;16.50;99.90;;;;;;5013374;28;20022;-80
2021/05/25 06:12:31;;;;;;;25.85;11.00;;;16.50;99.90;;;;;;5013810;28;20022;-80
2021/05/25 06:14:56;;;;;;;21.20;9.48;;;16.90;99.90;;;;;;5013567;28;20036;-78
2021/05/25 06:17:22;;;;;;;14.20;7.93;;;17.80;99.90;;;;;;4995942;28;20051;-79
2021/05/25 06:19:48;;;;;;;16.85;8.75;;;19.50;99.90;;;;;;5013371;28;20029;-80
2021/05/25 06:22:14;;;;;;;20.05;8.60;;;20.00;99.90;;;;;;5013453;28;20049;-80
2021/05/25 06:24:39;;;;;;;16.48;8.98;;;19.70;99.90;;;;;;5015587;28;20030;-79
2021/05/25 06:27:06;;;;;;;21.67;9.30;;;19.30;99.90;;;;;;5015435;28;20022;-81
2021/05/25 06:29:32;;;;;;;24.25;9.40;;;18.80;99.90;;;;;;5032625;28;20021;-80
2021/05/25 06:32:02;;;;;;;27.42;9.57;;;18.60;99.90;;;;;;5033005;28;20108;-80
2021/05/25 06:34:28;;;;;;;14.23;9.38;;;18.60;99.90;;;;;;5025740;28;20467;-80
2021/05/25 06:36:55;;;;;;;19.63;8.38;;;19.50;99.90;;;;;;5012914;28;20022;-80
2021/05/25 06:39:21;;;;;;;9.25;6.03;;;22.20;99.90;;;;;;5012943;28;20026;-79
2021/05/25 06:41:47;;;;;;;12.35;6.28;;;25.50;99.90;;;;;;5012940;28;20022;-81
2021/05/25 06:44:12;;;;;;;12.07;5.07;;;26.50;99.90;;;;;;5013529;28;20485;-81
2021/05/25 06:46:39;;;;;;;15.48;5.85;;;26.40;99.90;;;;;;5026487;28;20034;-79
2021/05/25 06:49:04;;;;;;;9.73;4.45;;;25.60;99.90;;;;;;5012864;28;20046;-80
2021/05/25 06:51:30;;;;;;;16.08;5.20;;;24.70;99.90;;;;;;5012991;28;20029;-79
2021/05/25 06:53:56;;;;;;;13.10;5.03;;;23.40;99.90;;;;;;5013056;28;20400;-78
2021/05/25 06:56:22;;;;;;;10.98;4.13;;;22.30;99.90;;;;;;5012633;28;20053;-79
2021/05/25 06:58:47;;;;;;;9.95;4.75;;;21.30;99.90;;;;;;5013096;28;20041;-79
2021/05/25 07:01:13;;;;;;;7.22;3.95;;;20.50;99.90;;;;;;5012717;28;20030;-80
2021/05/25 07:03:39;;;;;;;9.43;3.38;;;20.10;99.90;;;;;;5011976;28;20026;-78
2021/05/25 07:06:05;;;;;;;8.27;4.05;;;19.70;99.90;;;;;;5012699;28;20030;-79
2021/05/25 07:08:30;;;;;;;10.82;4.15;;;19.50;99.90;;;;;;5012563;28;20022;-79
2021/05/25 07:10:56;;;;;;;10.20;4.40;;;19.30;99.90;;;;;;5013090;28;20027;-80
2021/05/25 07:13:22;;;;;;;9.15;3.97;;;19.30;99.90;;;;;;5011742;28;20124;-80
2021/05/25 07:15:48;;;;;;;11.30;4.10;;;19.30;99.90;;;;;;5011937;28;20088;-79
2021/05/25 07:18:18;;;;;;;13.95;4.80;;;19.20;99.90;;;;;;5011986;28;20053;-80
2021/05/25 07:20:44;;;;;;;9.27;3.65;;;19.10;99.90;;;;;;5022971;28;20033;-78
2021/05/25 07:23:10;;;;;;;5.13;3.40;;;18.80;99.90;;;;;;5027789;28;20100;-79
2021/05/25 07:25:37;;;;;;;8.13;3.90;;;18.60;99.90;;;;;;5028328;28;20021;-80
2021/05/25 07:28:03;;;;;;;7.43;4.00;;;18.50;99.90;;;;;;5025195;28;20109;-79
2021/05/25 07:30:29;;;;;;;8.63;4.28;;;18.90;99.90;;;;;;5023298;28;20071;-79
2021/05/25 07:32:55;;;;;;;11.20;4.22;;;19.70;99.90;;;;;;5026209;28;20017;-78
2021/05/25 07:35:22;;;;;;;9.65;3.17;;;20.40;99.90;;;;;;5007444;28;20034;-79
2021/05/25 07:37:48;;;;;;;8.02;3.22;;;20.80;99.90;;;;;;5026670;28;20048;-79
2021/05/25 07:40:16;;;;;;;7.13;3.33;;;21.40;99.90;;;;;;5023720;28;20479;-80
2021/05/25 07:42:43;;;;;;;6.30;2.95;;;22.20;99.90;;;;;;5025084;28;20101;-81
2021/05/25 07:45:09;;;;;;;6.22;3.10;;;22.60;99.90;;;;;;5027433;28;20406;-79
2021/05/25 07:47:35;;;;;;;9.10;3.50;;;22.30;99.90;;;;;;5026995;28;20033;-80
2021/05/25 07:50:13;;;;;;;9.23;3.15;;;21.80;99.90;;;;;;5029166;28;20105;-80
2021/05/25 07:52:50;;;;;;;5.45;3.53;;;21.20;99.90;;;;;;5027786;28;20124;-78
2021/05/25 07:55:17;;;;;;;7.75;3.70;;;20.90;99.90;;;;;;5023868;28;20033;-80
2021/05/25 07:57:43;;;;;;;8.57;3.17;;;20.60;99.90;;;;;;5018628;28;20386;-80
2021/05/25 08:00:11;;;;;;;7.22;3.17;;;20.50;99.90;;;;;;5025899;28;20033;-80
2021/05/25 08:02:42;;;;;;;6.63;3.67;;;20.50;99.90;;;;;;5024295;28;21217;-79
2021/05/25 08:05:09;;;;;;;11.88;3.30;;;20.30;99.90;;;;;;5026056;28;20119;-79
2021/05/25 08:07:35;;;;;;;10.85;3.90;;;20.20;99.90;;;;;;5027033;28;20025;-80
2021/05/25 08:10:03;;;;;;;5.65;3.20;;;20.20;99.90;;;;;;5029200;28;20053;-79
2021/05/25 08:12:29;;;;;;;5.10;2.97;;;20.10;99.90;;;;;;5022171;28;20049;-79
2021/05/25 08:14:56;;;;;;;9.52;3.40;;;20.10;99.90;;;;;;5024640;28;20103;-80
2021/05/25 08:17:34;;;;;;;9.85;3.58;;;20.20;99.90;;;;;;5019251;28;20121;-80
2021/05/25 08:20:19;;;;;;;13.45;3.90;;;20.30;99.90;;;;;;5024727;28;20108;-80
2021/05/25 08:22:56;;;;;;;7.25;3.65;;;20.40;99.90;;;;;;5013061;28;20024;-79
2021/05/25 08:25:29;;;;;;;9.27;2.83;;;20.80;99.90;;;;;;5023437;28;20130;-79
2021/05/25 08:27:56;;;;;;;5.43;2.80;;;20.80;99.90;;;;;;5030441;28;20113;-79
2021/05/25 08:30:25;;;;;;;4.97;2.85;;;20.80;99.90;;;;;;5015478;28;20022;-79
2021/05/25 08:32:52;;;;;;;8.52;3.80;;;20.70;99.90;;;;;;5028771;28;20105;-79
2021/05/25 08:35:18;;;;;;;12.23;4.30;;;20.70;99.90;;;;;;5023975;28;20096;-79
2021/05/25 08:37:52;;;;;;;8.77;4.20;;;20.70;99.90;;;;;;5026332;28;20021;-79
2021/05/25 08:40:18;;;;;;;8.18;4.15;;;20.90;99.90;;;;;;5022912;28;20026;-79
2021/05/25 08:42:47;;;;;;;6.72;4.22;;;20.90;99.90;;;;;;5031925;28;20025;-81
2021/05/25 08:45:14;;;;;;;9.45;3.90;;;20.80;99.90;;;;;;5027776;28;20028;-79
2021/05/25 08:47:40;;;;;;;14.15;4.35;;;20.80;99.90;;;;;;5011973;28;20037;-76
2021/05/25 08:50:09;;;;;;;10.73;4.35;;;20.60;99.90;;;;;;5025095;28;20053;-79
2021/05/25 08:52:35;;;;;;;10.10;4.15;;;20.50;99.90;;;;;;5014910;28;20028;-78
2021/05/25 08:55:03;;;;;;;11.63;4.72;;;20.30;99.90;;;;;;5029097;28;20109;-79
2021/05/25 08:57:28;;;;;;;9.40;4.28;;;20.20;99.90;;;;;;5030377;28;20025;-79
2021/05/25 08:59:54;;;;;;;6.75;3.70;;;20.10;99.90;;;;;;5028273;28;20382;-79
2021/05/25 09:02:20;;;;;;;8.82;4.40;;;20.00;99.90;;;;;;5025063;28;20033;-79
2021/05/25 09:05:04;;;;;;;5.97;4.10;;;19.80;99.90;;;;;;5027557;28;20056;-79
2021/05/25 09:07:49;;;;;;;9.57;4.35;;;19.60;99.90;;;;;;5027285;28;20026;-79
2021/05/25 09:13:01;;;;;;;11.90;5.10;;;19.30;99.90;;;;;;5015402;28;20529;-78
2021/05/25 09:15:35;;;;;;;13.18;5.35;;;19.20;99.90;;;;;;4999462;28;20037;-77
2021/05/25 09:18:21;;;;;;;8.73;5.47;;;19.10;99.90;;;;;;5022790;28;20025;-78
2021/05/25 09:20:51;;;;;;;7.40;4.25;;;19.10;99.90;;;;;;5022698;28;20029;-78
2021/05/25 09:23:34;;;;;;;11.10;4.15;;;19.00;99.90;;;;;;5024335;28;20502;-78
2021/05/25 09:26:07;;;;;;;7.13;3.78;;;19.00;99.90;;;;;;5032772;28;20025;-78
2021/05/25 09:28:34;;;;;;;12.10;3.85;;;19.10;99.90;;;;;;5027103;28;20033;-79
2021/05/25 09:31:03;;;;;;;14.50;3.63;;;19.20;99.90;;;;;;5029249;28;20529;-79
2021/05/25 09:33:29;;;;;;;6.10;3.63;;;19.30;99.90;;;;;;5025239;28;20471;-79
2021/05/25 09:35:55;;;;;;;12.57;4.32;;;19.30;99.90;;;;;;5021118;28;20033;-78
2021/05/25 09:38:26;;;;;;;7.35;3.78;;;19.30;99.90;;;;;;5026371;28;20108;-79
2021/05/25 09:40:52;;;;;;;9.88;3.80;;;19.20;99.90;;;;;;5022760;28;20032;-79
2021/05/25 09:43:22;;;;;;;13.07;4.50;;;19.20;99.90;;;;;;5026834;28;20017;-78
2021/05/25 09:45:55;;;;;;;5.22;3.72;;;19.30;99.90;;;;;;5025076;28;20454;-79
2021/05/25 09:48:22;;;;;;;10.70;4.28;;;19.60;99.90;;;;;;5025037;28;20042;-79
2021/05/25 09:50:48;;;;;;;6.10;3.28;;;19.80;99.90;;;;;;5029315;28;20409;-79
2021/05/25 09:53:21;;;;;;;6.82;3.65;;;19.90;99.90;;;;;;5026922;28;20052;-78
2021/05/25 09:56:04;;;;;;;7.60;4.50;;;20.10;99.90;;;;;;5029427;28;20112;-78
2021/05/25 09:58:32;;;;;;;9.23;5.82;;;20.30;99.90;;;;;;5027012;28;20017;-79
2021/05/25 10:01:03;;;;;;;13.27;5.22;;;20.60;99.90;;;;;;4996698;28;20068;-78
2021/05/25 10:03:32;;;;;;;7.43;4.43;;;21.00;99.90;;;;;;5013558;28;20120;-78
2021/05/25 10:06:01;;;;;;;5.72;4.30;;;21.30;99.90;;;;;;5013816;28;20018;-79
2021/05/25 10:08:28;;;;;;;10.23;4.57;;;21.70;99.90;;;;;;5013776;28;20061;-78
2021/05/25 10:10:56;;;;;;;8.40;5.32;;;21.90;99.90;;;;;;5014594;28;20056;-78
2021/05/25 10:13:24;;;;;;;7.28;4.80;;;22.20;99.90;;;;;;5021980;28;20026;-79
2021/05/25 10:15:51;;;;;;;7.05;3.88;;;22.40;99.90;;;;;;5013527;28;20025;-79
2021/05/25 10:18:35;;;;;;;7.25;3.55;;;22.40;99.90;;;;;;5015584;28;20026;-78
2021/05/25 10:21:04;;;;;;;9.55;4.25;;;22.30;99.90;;;;;;5021728;28;20030;-78
2021/05/25 10:23:33;;;;;;;8.15;3.45;;;22.40;99.90;;;;;;5026476;28;20029;-78
2021/05/25 10:26:05;;;;;;;6.20;2.70;;;22.50;99.90;;;;;;5028738;28;20548;-78
2021/05/25 10:28:32;;;;;;;6.03;2.88;;;22.40;99.90;;;;;;5030657;28;20044;-78
2021/05/25 10:30:59;;;;;;;6.80;3.42;;;22.20;99.90;;;;;;5021283;28;20537;-79
2021/05/25 10:33:27;;;;;;;8.52;3.50;;;22.10;99.90;;;;;;5020752;28;20045;-78
2021/05/25 10:36:02;;;;;;;5.78;2.60;;;22.10;99.90;;;;;;5013151;28;20026;-79
2021/05/25 10:38:53;;;;;;;5.18;1.90;;;22.00;99.90;;;;;;5023565;28;20021;-78
2021/05/25 10:41:35;;;;;;;3.03;1.88;;;22.00;99.90;;;;;;5024134;28;20021;-78
2021/05/25 10:44:02;;;;;;;3.42;2.03;;;21.90;99.90;;;;;;5022882;28;20049;-79
2021/05/25 10:46:30;;;;;;;3.15;2.17;;;21.70;99.90;;;;;;5012833;28;20029;-78
2021/05/25 10:51:44;;;;;;;6.68;1.75;;;21.60;99.90;;;;;;5032056;28;20025;-78
2021/05/25 10:54:34;;;;;;;2.45;1.50;;;21.70;99.90;;;;;;5026702;28;20105;-78
2021/05/25 10:57:04;;;;;;;4.22;1.70;;;22.00;99.90;;;;;;5027193;28;20064;-78
2021/05/25 11:00:19;;;;;;;1.88;1.35;;;22.20;99.90;;;;;;5025711;28;20018;-78
2021/05/25 11:02:57;;;;;;;5.13;1.75;;;22.10;99.90;;;;;;4975907;28;20155;-78
2021/05/25 11:05:36;;;;;;;9.23;1.90;;;22.20;99.90;;;;;;5025975;28;20493;-78
2021/05/25 11:08:08;;;;;;;11.52;2.15;;;22.50;99.90;;;;;;5025976;28;20024;-78
2021/05/25 11:10:35;;;;;;;4.78;1.52;;;22.70;99.90;;;;;;5022350;28;20047;-80
2021/05/25 11:13:17;;;;;;;3.70;1.50;;;22.90;99.90;;;;;;5017282;28;20018;-79
2021/05/25 11:16:13;;;;;;;6.38;1.95;;;23.00;99.90;;;;;;5024160;28;20058;-80
2021/05/25 11:19:21;;;;;;;3.08;1.77;;;23.20;99.90;;;;;;5021985;28;20024;-80
2021/05/25 11:24:40;;;;;;;5.72;1.75;;;23.50;99.90;;;;;;5025573;28;20018;-79
2021/05/25 11:27:44;;;;;;;19.30;2.85;;;23.30;99.90;;;;;;5025037;28;20020;-80
2021/05/25 11:30:31;;;;;;;6.00;1.60;;;23.30;99.90;;;;;;5018742;28;20025;-79
2021/05/25 11:33:00;;;;;;;5.75;2.22;;;23.00;99.90;;;;;;5026764;28;20029;-79
2021/05/25 11:35:28;;;;;;;8.15;2.22;;;22.90;99.90;;;;;;5024666;28;20453;-80
2021/05/25 11:37:59;;;;;;;4.60;1.90;;;22.70;99.90;;;;;;5026852;28;20010;-79
2021/05/25 11:40:33;;;;;;;4.10;2.10;;;22.60;99.90;;;;;;5025945;28;20022;-80
2021/05/25 11:42:59;;;;;;;6.63;2.08;;;22.50;99.90;;;;;;5023343;28;20026;-80
2021/05/25 11:45:26;;;;;;;2.78;1.90;;;22.40;99.90;;;;;;5024917;28;20029;-79
2021/05/25 11:47:56;;;;;;;10.43;2.28;;;22.30;99.90;;;;;;5023292;28;20034;-80
2021/05/25 11:50:22;;;;;;;3.65;1.70;;;22.30;99.90;;;;;;5026698;28;20033;-80
2021/05/25 11:52:52;;;;;;;6.72;2.05;;;22.30;99.90;;;;;;5023128;28;20018;-79
2021/05/25 11:55:19;;;;;;;5.97;2.55;;;22.40;99.90;;;;;;5026942;28;20044;-79
2021/05/25 11:57:47;;;;;;;2.72;1.80;;;22.70;99.90;;;;;;5025049;28;20117;-80
2021/05/25 12:00:15;;;;;;;4.45;2.13;;;22.60;99.90;;;;;;5027033;28;20026;-80
2021/05/25 12:02:48;;;;;;;3.90;2.05;;;22.60;99.90;;;;;;5025423;28;20022;-80
2021/05/25 12:05:19;;;;;;;5.10;2.28;;;22.50;99.90;;;;;;5030182;28;20032;-80
2021/05/25 12:08:04;;;;;;;4.93;2.10;;;22.50;99.90;;;;;;5027827;28;20018;-81
2021/05/25 12:10:33;;;;;;;5.35;2.40;;;22.60;99.90;;;;;;5029893;28;20104;-81
2021/05/25 12:13:07;;;;;;;7.95;2.35;;;23.00;99.90;;;;;;5026773;28;20080;-80
2021/05/25 12:15:41;;;;;;;7.95;2.40;;;23.30;99.90;;;;;;5014306;28;20033;-80
2021/05/25 12:18:11;;;;;;;10.90;2.25;;;23.50;99.90;;;;;;5023781;28;20022;-79
2021/05/25 12:20:39;;;;;;;7.60;2.50;;;23.50;99.90;;;;;;5030203;28;20014;-79
2021/05/25 12:23:10;;;;;;;8.10;2.67;;;23.60;99.90;;;;;;5027755;28;20021;-80
2021/05/25 12:25:36;;;;;;;5.65;2.78;;;23.40;99.90;;;;;;5034463;28;20040;-79
2021/05/25 12:28:13;;;;;;;9.55;3.83;;;23.40;99.90;;;;;;5030934;28;20025;-84
2021/05/25 12:30:43;;;;;;;8.05;4.03;;;23.30;99.90;;;;;;5024447;28;20486;-79
2021/05/25 12:33:19;;;;;;;10.77;3.05;;;23.20;99.90;;;;;;5009561;28;20409;-78
2021/05/25 12:35:46;;;;;;;8.23;3.35;;;23.30;99.90;;;;;;5012137;28;20121;-80
2021/05/25 12:38:15;;;;;;;12.00;3.15;;;23.40;99.90;;;;;;5010632;28;20040;-79
2021/05/25 12:40:43;;;;;;;7.43;3.22;;;23.30;99.90;;;;;;5017006;28;20037;-82
2021/05/25 12:43:17;;;;;;;6.05;3.63;;;23.20;99.90;;;;;;5009386;28;20021;-79
2021/05/25 12:45:44;;;;;;;8.68;3.90;;;23.30;99.90;;;;;;4996396;28;20430;-78
2021/05/25 12:48:10;;;;;;;11.25;3.13;;;23.40;99.90;;;;;;5017466;28;20077;-83
2021/05/25 12:50:38;;;;;;;10.77;4.10;;;23.40;99.90;;;;;;5008945;28;20446;-83
2021/05/25 12:53:05;;;;;;;6.07;3.55;;;23.40;99.90;;;;;;4996027;28;20371;-80
2021/05/25 12:55:32;;;;;;;7.07;3.88;;;23.30;99.90;;;;;;5025056;28;20034;-79
2021/05/25 12:57:58;;;;;;;11.35;3.80;;;23.20;99.90;;;;;;5013422;28;20014;-80
2021/05/25 13:00:27;;;;;;;15.15;3.35;;;23.30;99.90;;;;;;5024930;28;20060;-80